createdAt,value
2022-07-31T00:01:40.785Z,1.75
2022-07-31T00:06:43.716Z,2.03
2022-07-31T00:11:45.838Z,2.13
2022-07-31T00:16:47.423Z,2.13
2022-07-31T00:21:49.012Z,1.85
2022-07-31T00:26:52.996Z,2.10
2022-07-31T00:31:54.647Z,1.83
2022-07-31T00:36:56.186Z,2.03
2022-07-31T00:41:58.193Z,1.88
2022-07-31T00:46:59.897Z,1.67
2022-07-31T00:52:03.695Z,1.75
2022-07-31T00:57:06.810Z,2.20
2022-07-31T01:02:08.667Z,2.50
2022-07-31T01:07:10.590Z,2.00
2022-07-31T01:12:18.761Z,2.50
2022-07-31T01:17:25.290Z,2.60
2022-07-31T01:22:57.642Z,2.35
2022-07-31T01:28:24.206Z,2.40
2022-07-31T01:38:57.641Z,2.40
2022-07-31T01:44:01.100Z,2.30
2022-07-31T01:49:03.865Z,2.60
2022-07-31T01:54:07.302Z,2.42
2022-07-31T01:59:17.076Z,2.92
2022-07-31T02:04:47.091Z,2.70
2022-07-31T02:09:58.110Z,2.60
2022-07-31T02:15:09.073Z,2.83
2022-07-31T02:20:14.260Z,2.93
2022-07-31T02:25:17.128Z,2.88
2022-07-31T02:30:19.191Z,2.50
2022-07-31T02:35:25.762Z,2.85
2022-07-31T02:40:27.564Z,2.53
2022-07-31T02:45:29.772Z,3.20
2022-07-31T02:50:32.532Z,2.80
2022-07-31T02:55:35.340Z,2.60
2022-07-31T03:00:37.264Z,3.20
2022-07-31T03:05:39.122Z,2.90
2022-07-31T03:10:40.687Z,2.95
2022-07-31T03:15:43.850Z,2.92
2022-07-31T03:20:54.830Z,3.50
2022-07-31T03:25:58.230Z,3.00
2022-07-31T03:30:59.855Z,3.10
2022-07-31T03:36:05.677Z,3.13
2022-07-31T03:41:07.272Z,2.97
2022-07-31T03:46:10.085Z,2.85
2022-07-31T03:51:13.315Z,2.90
2022-07-31T03:56:16.213Z,3.28
2022-07-31T04:01:19.008Z,3.00
2022-07-31T04:06:22.911Z,2.80
2022-07-31T04:11:24.544Z,3.00
2022-07-31T04:16:26.158Z,2.78
2022-07-31T04:21:27.815Z,3.15
2022-07-31T04:26:30.977Z,2.90
2022-07-31T04:31:35.847Z,2.40
2022-07-31T04:36:39.580Z,2.80
2022-07-31T04:41:41.140Z,3.00
2022-07-31T04:46:43.903Z,2.70
2022-07-31T04:51:45.760Z,2.83
2022-07-31T04:56:48.499Z,2.67
2022-07-31T05:01:51.134Z,2.45
2022-07-31T05:06:56.605Z,2.78
2022-07-31T05:11:59.233Z,2.70
2022-07-31T05:17:01.664Z,2.92
2022-07-31T05:22:18.821Z,2.97
2022-07-31T05:27:39.046Z,2.67
2022-07-31T05:32:43.047Z,2.20
2022-07-31T05:37:44.666Z,1.95
2022-07-31T05:42:46.974Z,2.97
2022-07-31T05:48:11.854Z,2.40
2022-07-31T05:53:15.170Z,2.17
2022-07-31T05:58:48.841Z,2.33
2022-07-31T06:03:52.033Z,1.80
2022-07-31T06:09:12.099Z,1.83
2022-07-31T06:14:17.701Z,1.63
2022-07-31T06:19:45.457Z,1.95
2022-07-31T06:24:47.990Z,1.85
2022-07-31T06:29:49.622Z,1.75
2022-07-31T06:34:51.197Z,1.67
2022-07-31T06:39:56.287Z,1.35
2022-07-31T06:45:48.521Z,1.58
2022-07-31T06:51:30.282Z,1.30
2022-07-31T06:56:34.341Z,1.42
2022-07-31T07:01:36.054Z,1.20
2022-07-31T07:06:37.788Z,1.33
2022-07-31T07:11:40.848Z,1.70
2022-07-31T07:16:42.829Z,1.70
2022-07-31T07:21:44.459Z,1.52
2022-07-31T07:26:46.052Z,1.63
2022-07-31T07:31:47.728Z,1.17
2022-07-31T07:36:50.273Z,1.42
2022-07-31T07:41:56.946Z,1.65
2022-07-31T07:46:58.620Z,1.58
2022-07-31T07:52:01.687Z,1.30
2022-07-31T07:57:22.078Z,1.30
2022-07-31T08:02:44.652Z,1.33
2022-07-31T08:07:47.556Z,1.48
2022-07-31T08:13:06.887Z,1.55
2022-07-31T08:18:28.489Z,1.30
2022-07-31T08:23:30.805Z,1.42
2022-07-31T08:28:32.404Z,1.50
2022-07-31T08:33:34.502Z,1.35
2022-07-31T08:38:36.712Z,1.10
2022-07-31T08:44:04.336Z,1.40
2022-07-31T08:49:09.911Z,1.55
2022-07-31T08:54:15.244Z,1.30
2022-07-31T08:59:17.491Z,1.45
2022-07-31T09:04:19.234Z,1.05
2022-07-31T09:09:21.099Z,1.00
2022-07-31T09:14:48.063Z,1.15
2022-07-31T09:19:54.811Z,1.20
2022-07-31T09:25:12.808Z,1.10
2022-07-31T09:30:15.865Z,0.85
2022-07-31T09:35:39.916Z,0.98
2022-07-31T09:40:57.043Z,1.20
2022-07-31T09:46:17.723Z,1.20
2022-07-31T09:51:19.339Z,1.00
2022-07-31T09:56:32.360Z,1.20
2022-07-31T10:01:36.544Z,1.40
2022-07-31T10:06:40.049Z,1.17
2022-07-31T10:11:42.959Z,1.05
2022-07-31T10:16:49.849Z,1.30
2022-07-31T10:22:10.723Z,1.25
2022-07-31T10:27:17.284Z,1.25
2022-07-31T10:32:19.913Z,1.05
2022-07-31T10:37:53.419Z,1.20
2022-07-31T10:43:30.370Z,1.00
2022-07-31T10:48:53.535Z,1.10
2022-07-31T10:54:38.943Z,1.13
2022-07-31T11:00:17.542Z,1.27
2022-07-31T11:06:01.917Z,1.40
2022-07-31T11:11:34.794Z,1.40
2022-07-31T11:16:55.752Z,1.60
2022-07-31T11:22:33.262Z,1.27
2022-07-31T11:27:34.938Z,1.20
2022-07-31T11:32:36.513Z,1.25
2022-07-31T11:37:57.161Z,1.52
2022-07-31T11:48:27.421Z,1.25
2022-07-31T11:53:29.563Z,1.33
2022-07-31T11:58:31.201Z,1.42
2022-07-31T12:03:36.323Z,1.40
2022-07-31T12:08:39.417Z,1.52
2022-07-31T12:13:46.264Z,1.40
2022-07-31T12:18:52.299Z,1.30
2022-07-31T12:23:54.066Z,1.40
2022-07-31T12:29:02.826Z,1.50
2022-07-31T12:39:06.576Z,1.30
2022-07-31T12:44:13.440Z,1.77
2022-07-31T12:49:16.764Z,1.20
2022-07-31T12:54:18.407Z,1.40
2022-07-31T12:59:19.965Z,1.35
2022-07-31T13:04:21.521Z,1.50
2022-07-31T13:09:23.257Z,1.33
2022-07-31T13:14:25.182Z,1.30
2022-07-31T13:19:27.364Z,1.50
2022-07-31T13:24:29.019Z,1.40
2022-07-31T13:29:30.598Z,1.30
2022-07-31T13:34:32.183Z,1.30
2022-07-31T13:39:33.765Z,1.10
2022-07-31T13:44:35.368Z,1.48
2022-07-31T13:49:37.172Z,1.52
2022-07-31T13:54:38.820Z,1.27
2022-07-31T13:59:40.405Z,1.67
2022-07-31T14:04:41.971Z,1.42
2022-07-31T14:09:51.422Z,1.55
2022-07-31T14:14:56.888Z,1.23
2022-07-31T14:19:58.579Z,1.40
2022-07-31T14:25:00.186Z,1.40
2022-07-31T14:30:01.927Z,1.30
2022-07-31T14:35:08.162Z,1.50
2022-07-31T14:40:11.017Z,1.80
2022-07-31T14:45:12.753Z,1.40
2022-07-31T14:50:19.241Z,1.20
2022-07-31T14:55:23.096Z,1.48
2022-07-31T15:00:27.791Z,1.20
2022-07-31T15:06:41.099Z,1.50
2022-07-31T15:10:51.367Z,1.08
2022-07-31T15:15:52.952Z,1.20
2022-07-31T15:20:54.571Z,1.20
2022-07-31T15:25:56.279Z,1.20
2022-07-31T15:31:01.007Z,1.33
2022-07-31T15:36:02.924Z,1.13
2022-07-31T15:41:04.796Z,1.30
2022-07-31T15:46:10.097Z,1.48
2022-07-31T15:51:11.766Z,1.35
2022-07-31T15:56:13.400Z,1.20
2022-07-31T16:01:15.006Z,1.70
2022-07-31T16:06:16.667Z,1.10
2022-07-31T16:11:20.159Z,1.00
2022-07-31T16:16:21.751Z,1.05
2022-07-31T16:21:23.356Z,1.52
2022-07-31T16:26:24.991Z,1.20
2022-07-31T16:31:30.340Z,0.98
2022-07-31T16:36:32.633Z,1.17
2022-07-31T16:41:34.214Z,0.80
2022-07-31T16:46:35.801Z,0.88
2022-07-31T16:51:37.406Z,1.00
2022-07-31T16:56:38.980Z,1.00
2022-07-31T17:01:57.956Z,1.05
2022-07-31T17:07:02.362Z,0.93
2022-07-31T17:12:04.840Z,1.60
2022-07-31T17:17:06.984Z,1.10
2022-07-31T17:22:11.175Z,1.02
2022-07-31T17:27:13.359Z,1.20
2022-07-31T17:32:14.963Z,1.08
2022-07-31T17:37:19.583Z,0.90
2022-07-31T17:42:23.775Z,1.10
2022-07-31T17:47:26.796Z,1.25
2022-07-31T17:52:28.359Z,1.08
2022-07-31T17:57:30.536Z,1.08
2022-07-31T18:02:33.184Z,0.90
2022-07-31T18:07:36.417Z,0.98
2022-07-31T18:12:57.173Z,0.80
2022-07-31T18:17:59.832Z,0.80
2022-07-31T18:23:01.521Z,1.15
2022-07-31T18:28:03.254Z,1.00
2022-07-31T18:33:04.881Z,0.80
2022-07-31T18:38:06.468Z,0.73
2022-07-31T18:43:09.044Z,0.82
2022-07-31T18:48:10.661Z,0.90
2022-07-31T18:53:13.001Z,1.08
2022-07-31T18:58:14.653Z,0.98
2022-07-31T19:03:18.405Z,0.75
2022-07-31T19:08:20.983Z,0.95
2022-07-31T19:13:22.981Z,1.67
2022-07-31T19:18:28.789Z,1.20
2022-07-31T19:23:30.850Z,1.27
2022-07-31T19:28:33.144Z,1.20
2022-07-31T19:33:35.132Z,1.00
2022-07-31T19:38:37.042Z,1.02
2022-07-31T19:43:38.708Z,0.85
2022-07-31T19:48:42.523Z,1.27
2022-07-31T19:53:44.849Z,1.00
2022-07-31T19:58:46.676Z,1.13
2022-07-31T20:03:49.947Z,1.10
2022-07-31T20:08:51.655Z,1.27
2022-07-31T20:13:53.205Z,1.17
2022-07-31T20:18:54.788Z,1.25
2022-07-31T20:23:57.644Z,1.20
2022-07-31T20:28:59.289Z,1.30
2022-07-31T20:34:01.003Z,1.30
2022-07-31T20:39:02.747Z,1.50
2022-07-31T20:44:04.528Z,1.50
2022-07-31T20:49:06.156Z,1.08
2022-07-31T20:54:07.820Z,1.00
2022-07-31T20:59:09.460Z,1.90
2022-07-31T21:04:15.543Z,1.20
2022-07-31T21:09:17.184Z,1.38
2022-07-31T21:14:18.738Z,1.40
2022-07-31T21:19:20.392Z,1.55
2022-07-31T21:24:22.312Z,1.50
2022-07-31T21:29:27.802Z,1.48
2022-07-31T21:34:29.662Z,1.58
2022-07-31T21:39:31.507Z,1.67
2022-07-31T21:44:33.357Z,1.50
2022-07-31T21:49:35.381Z,1.60
2022-07-31T21:54:36.975Z,1.48
2022-07-31T21:59:38.544Z,1.55
2022-07-31T22:05:00.106Z,2.00
2022-07-31T22:10:01.768Z,1.73
2022-07-31T22:15:09.475Z,1.80
2022-07-31T22:20:14.359Z,1.75
2022-07-31T22:25:16.450Z,1.50
2022-07-31T22:30:19.364Z,2.22
2022-07-31T22:35:22.005Z,2.10
2022-07-31T22:40:24.545Z,1.80
2022-07-31T22:45:26.741Z,1.60
2022-07-31T22:50:28.425Z,1.98
2022-07-31T22:55:30.732Z,1.88
2022-07-31T23:00:32.316Z,1.67
2022-07-31T23:06:12.200Z,1.90
2022-07-31T23:10:55.456Z,1.80
2022-07-31T23:15:57.045Z,2.20
2022-07-31T23:20:58.590Z,2.30
2022-07-31T23:26:00.152Z,1.88
2022-07-31T23:31:01.741Z,1.88
2022-07-31T23:36:03.558Z,1.80
2022-07-31T23:41:05.222Z,2.45
2022-07-31T23:46:07.006Z,2.10
2022-07-31T23:51:08.797Z,2.25
2022-07-31T23:56:12.602Z,2.03
